Time;durP1;ratioP1;P1;durP2;ratioP2;P2;SDS_P1;SDS_P2;PMS_P1;PMS_P2;Temp;Humidity;BMP_temperature;BMP_pressure;BME280_temperature;BME280_humidity;BME280_pressure;Samples;Min_cycle;Max_cycle;Signal;HPM_P1;HPM_P2
2021/11/13 00:01:17;;;;;;;175.50;27.43;;;2.60;99.90;;;;;;4998081;28;20522;-60
2021/11/13 00:03:43;;;;;;;90.90;24.13;;;2.60;99.90;;;;;;4996503;28;20230;-60
2021/11/13 00:06:09;;;;;;;106.73;24.33;;;2.50;99.90;;;;;;5002669;28;20177;-60
2021/11/13 00:08:34;;;;;;;161.93;25.00;;;2.50;99.90;;;;;;4996656;28;20615;-60
2021/11/13 00:11:00;;;;;;;87.27;25.10;;;2.50;99.90;;;;;;5001566;28;20164;-61
2021/11/13 00:13:26;;;;;;;99.70;23.53;;;2.50;99.90;;;;;;5000284;28;20371;-60
2021/11/13 00:15:52;;;;;;;87.77;23.93;;;2.40;99.90;;;;;;5000774;28;20260;-60
2021/11/13 00:18:18;;;;;;;93.67;24.97;;;2.40;99.90;;;;;;4999928;28;20184;-60
2021/11/13 00:20:44;;;;;;;92.70;21.83;;;2.40;99.90;;;;;;5003970;28;20858;-61
2021/11/13 00:23:10;;;;;;;90.87;22.13;;;2.40;99.90;;;;;;5005299;28;20234;-59
2021/11/13 00:25:36;;;;;;;135.47;21.90;;;2.40;99.90;;;;;;5004208;28;20231;-59
2021/11/13 00:28:02;;;;;;;85.70;21.47;;;2.40;99.90;;;;;;4992118;28;20424;-59
2021/11/13 00:30:28;;;;;;;96.13;23.60;;;2.40;99.90;;;;;;5001308;28;20205;-61
2021/11/13 00:32:54;;;;;;;84.53;22.80;;;2.50;99.90;;;;;;5006838;28;20460;-61
2021/11/13 00:35:20;;;;;;;92.03;25.30;;;2.50;99.90;;;;;;5005360;28;20164;-61
2021/11/13 00:37:45;;;;;;;90.90;23.60;;;2.50;99.90;;;;;;5000980;28;20684;-60
2021/11/13 00:40:14;;;;;;;88.47;23.20;;;2.50;99.90;;;;;;4996264;28;20958;-60
2021/11/13 00:42:40;;;;;;;85.40;25.70;;;2.50;99.90;;;;;;5007131;28;20204;-61
2021/11/13 00:45:07;;;;;;;69.83;28.67;;;2.60;99.90;;;;;;5002251;28;20410;-60
2021/11/13 00:47:33;;;;;;;101.70;31.20;;;2.60;99.90;;;;;;4994210;28;20247;-60
2021/11/13 00:49:58;;;;;;;90.33;25.60;;;2.60;99.90;;;;;;4995994;28;20471;-60
2021/11/13 00:52:24;;;;;;;44.13;20.63;;;2.60;99.90;;;;;;5011565;28;20505;-61
2021/11/13 00:54:50;;;;;;;24.40;14.90;;;2.60;99.90;;;;;;5004223;28;20268;-60
2021/11/13 00:57:16;;;;;;;21.03;13.43;;;2.50;99.90;;;;;;5002404;28;20286;-61
2021/11/13 00:59:42;;;;;;;22.83;14.77;;;2.40;99.90;;;;;;4998864;28;20173;-61
2021/11/13 01:02:08;;;;;;;25.97;16.20;;;2.40;99.90;;;;;;5005734;28;20421;-60
2021/11/13 01:04:35;;;;;;;23.70;15.40;;;2.30;99.90;;;;;;5003176;28;20177;-61
2021/11/13 01:07:01;;;;;;;57.53;18.27;;;2.30;99.90;;;;;;5010154;28;20830;-61
2021/11/13 01:09:27;;;;;;;45.47;19.13;;;2.30;99.90;;;;;;5009276;28;20437;-61
2021/11/13 01:11:53;;;;;;;66.23;20.87;;;2.30;99.90;;;;;;5007917;28;20439;-60
2021/11/13 01:14:19;;;;;;;73.97;21.50;;;2.30;99.90;;;;;;5005020;28;20710;-61
2021/11/13 01:16:44;;;;;;;48.93;19.93;;;2.40;99.90;;;;;;4999932;28;20789;-60
2021/11/13 01:19:11;;;;;;;47.20;19.60;;;2.40;99.90;;;;;;5008074;28;20438;-61
2021/11/13 01:21:37;;;;;;;129.17;22.17;;;2.30;99.90;;;;;;5009810;28;20227;-62
2021/11/13 01:24:03;;;;;;;55.43;20.70;;;2.30;99.90;;;;;;5023123;28;20446;-62
2021/11/13 01:26:29;;;;;;;52.87;21.63;;;2.30;99.90;;;;;;5009311;28;20445;-61
2021/11/13 01:28:55;;;;;;;82.50;21.07;;;2.30;99.90;;;;;;5006935;28;20938;-60
2021/11/13 01:31:21;;;;;;;49.00;21.47;;;2.30;99.90;;;;;;5006730;28;20434;-60
2021/11/13 01:33:47;;;;;;;38.63;19.50;;;2.40;99.90;;;;;;5014987;28;20331;-60
2021/11/13 01:36:13;;;;;;;31.90;16.63;;;2.40;99.90;;;;;;5012592;28;20212;-59
2021/11/13 01:38:39;;;;;;;22.10;13.87;;;2.30;99.90;;;;;;5002059;28;20420;-61
2021/11/13 01:41:06;;;;;;;17.20;12.17;;;2.40;99.90;;;;;;5006963;28;20507;-60
2021/11/13 01:43:34;;;;;;;16.77;11.57;;;2.30;99.90;;;;;;5007562;28;20447;-61
2021/11/13 01:46:05;;;;;;;17.10;11.60;;;2.30;99.90;;;;;;5009502;28;20457;-61
2021/11/13 01:48:31;;;;;;;18.10;13.03;;;2.20;99.90;;;;;;5003219;28;20464;-61
2021/11/13 01:50:58;;;;;;;23.10;12.67;;;2.10;99.90;;;;;;4994597;28;20618;-61
2021/11/13 01:53:24;;;;;;;21.40;13.43;;;2.10;99.90;;;;;;5004628;28;20462;-61
2021/11/13 01:55:54;;;;;;;18.77;12.63;;;2.10;99.90;;;;;;5009713;28;20458;-61
2021/11/13 01:58:20;;;;;;;20.07;13.07;;;2.00;99.90;;;;;;5007482;28;20441;-61
2021/11/13 02:00:57;;;;;;;19.90;13.40;;;2.00;99.90;;;;;;5009790;28;20411;-59
2021/11/13 02:03:23;;;;;;;26.07;13.43;;;2.00;99.90;;;;;;5010051;28;20490;-60
2021/11/13 02:05:51;;;;;;;17.73;12.23;;;2.00;99.90;;;;;;5005562;28;20526;-60
2021/11/13 02:08:17;;;;;;;28.17;14.77;;;2.00;99.90;;;;;;5008525;28;20810;-60
2021/11/13 02:10:43;;;;;;;24.37;15.07;;;2.00;99.90;;;;;;4999901;28;20455;-60
2021/11/13 02:13:09;;;;;;;21.70;13.13;;;2.00;99.90;;;;;;5013528;28;20502;-60
2021/11/13 02:15:35;;;;;;;29.03;15.00;;;2.10;99.90;;;;;;5012572;28;20431;-60
2021/11/13 02:18:01;;;;;;;45.50;16.03;;;2.10;99.90;;;;;;5009337;28;20429;-60
2021/11/13 02:20:32;;;;;;;51.73;16.40;;;2.00;99.90;;;;;;5028094;28;20167;-60
2021/11/13 02:23:08;;;;;;;35.67;16.10;;;2.00;99.90;;;;;;5019087;28;20935;-60
2021/11/13 02:25:34;;;;;;;41.57;15.93;;;2.00;99.90;;;;;;5013210;28;20414;-61
2021/11/13 02:28:01;;;;;;;62.60;15.87;;;2.00;99.90;;;;;;5015706;28;20421;-60
2021/11/13 02:30:27;;;;;;;50.00;17.10;;;2.00;99.90;;;;;;5012214;28;20188;-61
2021/11/13 02:32:54;;;;;;;74.43;19.10;;;2.00;99.90;;;;;;5014262;28;20446;-60
2021/11/13 02:35:23;;;;;;;32.03;17.00;;;2.00;99.90;;;;;;5027683;28;21086;-60
2021/11/13 02:37:49;;;;;;;30.67;16.57;;;1.90;99.90;;;;;;5011235;28;20493;-60
2021/11/13 02:40:16;;;;;;;48.50;17.20;;;2.00;99.90;;;;;;5013650;28;20432;-61
2021/11/13 02:42:43;;;;;;;66.70;17.60;;;2.00;99.90;;;;;;5013177;28;20956;-60
2021/11/13 02:45:11;;;;;;;29.20;16.13;;;2.00;99.90;;;;;;5013895;28;20430;-62
2021/11/13 02:47:40;;;;;;;58.77;17.27;;;2.00;99.90;;;;;;5006582;28;20519;-61
2021/11/13 02:50:07;;;;;;;59.87;16.20;;;2.00;99.90;;;;;;5014165;28;20988;-61
2021/11/13 02:53:03;;;;;;;35.40;15.57;;;1.90;99.90;;;;;;5014445;28;20480;-60
2021/11/13 02:55:31;;;;;;;103.87;17.73;;;1.90;99.90;;;;;;5007048;28;20832;-61
2021/11/13 02:57:57;;;;;;;89.87;16.00;;;1.90;99.90;;;;;;5008407;28;20426;-59
2021/11/13 03:00:27;;;;;;;49.70;15.00;;;1.90;99.90;;;;;;5010265;28;20821;-60
2021/11/13 03:02:54;;;;;;;57.60;17.03;;;1.90;99.90;;;;;;5007224;28;20414;-61
2021/11/13 03:05:27;;;;;;;54.50;17.00;;;1.80;99.90;;;;;;5004209;28;20857;-61
2021/11/13 03:07:54;;;;;;;54.53;18.27;;;1.80;99.90;;;;;;5008318;28;20427;-61
2021/11/13 03:10:21;;;;;;;47.33;17.60;;;1.80;99.90;;;;;;5006646;28;20498;-60
2021/11/13 03:12:47;;;;;;;58.53;18.30;;;1.80;99.90;;;;;;5005449;28;20819;-61
2021/11/13 03:15:15;;;;;;;63.77;17.90;;;1.80;99.90;;;;;;5008292;28;20430;-61
2021/11/13 03:17:42;;;;;;;79.43;18.60;;;1.80;99.90;;;;;;5007539;28;20996;-60
2021/11/13 03:20:13;;;;;;;54.60;16.77;;;1.70;99.90;;;;;;5005837;28;20434;-60
2021/11/13 03:22:40;;;;;;;26.20;15.13;;;1.70;99.90;;;;;;5002347;28;20460;-60
2021/11/13 03:25:08;;;;;;;27.03;14.73;;;1.70;99.90;;;;;;5002124;28;20438;-60
2021/11/13 03:27:35;;;;;;;55.67;16.07;;;1.70;99.90;;;;;;5018266;28;20445;-61
2021/11/13 03:30:04;;;;;;;62.27;15.90;;;1.70;99.90;;;;;;4998130;28;20521;-61
2021/11/13 03:32:30;;;;;;;65.83;16.03;;;1.70;99.90;;;;;;5003769;28;20488;-61
2021/11/13 03:34:55;;;;;;;91.30;16.90;;;1.70;99.90;;;;;;5018691;28;20933;-62
2021/11/13 03:37:21;;;;;;;52.63;16.53;;;1.60;99.90;;;;;;5003426;28;20202;-61
2021/11/13 03:39:47;;;;;;;100.77;17.70;;;1.60;99.90;;;;;;5002919;28;20838;-60
2021/11/13 03:42:13;;;;;;;70.47;15.90;;;1.60;99.90;;;;;;5004128;28;20208;-60
2021/11/13 03:44:38;;;;;;;30.03;14.33;;;1.60;99.90;;;;;;5003997;28;20184;-63
2021/11/13 03:47:04;;;;;;;25.40;15.37;;;1.60;99.90;;;;;;5003993;28;20855;-59
2021/11/13 03:49:30;;;;;;;36.57;14.70;;;1.60;99.90;;;;;;5001534;28;20183;-61
2021/11/13 03:51:57;;;;;;;33.83;16.03;;;1.60;99.90;;;;;;5006176;28;20950;-60
2021/11/13 03:54:22;;;;;;;46.53;16.40;;;1.60;99.90;;;;;;5003144;28;20179;-61
2021/11/13 03:56:48;;;;;;;63.23;16.83;;;1.70;99.90;;;;;;5004952;28;20454;-60
2021/11/13 03:59:14;;;;;;;46.27;19.50;;;1.60;99.90;;;;;;5003403;28;20172;-62
2021/11/13 04:01:39;;;;;;;35.00;16.10;;;1.70;99.90;;;;;;5001680;28;20577;-60
2021/11/13 04:04:05;;;;;;;33.03;16.77;;;1.70;99.90;;;;;;5002956;28;20326;-60
2021/11/13 04:06:31;;;;;;;54.83;17.57;;;1.70;99.90;;;;;;5006360;28;20186;-61
2021/11/13 04:08:56;;;;;;;41.73;14.80;;;1.70;99.90;;;;;;5001671;28;20661;-61
2021/11/13 04:11:22;;;;;;;42.00;17.73;;;1.70;99.90;;;;;;5003038;28;20185;-60
2021/11/13 04:13:48;;;;;;;48.63;17.53;;;1.70;99.90;;;;;;5003659;28;20208;-61
2021/11/13 04:16:13;;;;;;;29.27;16.73;;;1.70;99.90;;;;;;5003297;28;20195;-61
2021/11/13 04:18:39;;;;;;;72.73;17.50;;;1.70;99.90;;;;;;5001983;28;20648;-61
2021/11/13 04:21:04;;;;;;;54.83;15.57;;;1.70;99.90;;;;;;5003225;28;20667;-62
2021/11/13 04:23:32;;;;;;;76.33;16.27;;;1.70;99.90;;;;;;5001994;28;20778;-61
2021/11/13 04:25:58;;;;;;;31.70;14.47;;;1.60;99.90;;;;;;5001671;28;20848;-60
2021/11/13 04:28:24;;;;;;;50.70;15.00;;;1.60;99.90;;;;;;5001228;28;20900;-60
2021/11/13 04:30:49;;;;;;;33.43;15.63;;;1.60;99.90;;;;;;4999521;28;20442;-60
2021/11/13 04:33:15;;;;;;;35.63;16.00;;;1.60;99.90;;;;;;5002478;28;20996;-62
2021/11/13 04:35:49;;;;;;;33.67;16.07;;;1.50;99.90;;;;;;5047396;23;20236;-60
2021/11/13 04:38:15;;;;;;;46.17;16.73;;;1.60;99.90;;;;;;5023316;28;20190;-61
2021/11/13 04:40:42;;;;;;;41.87;16.20;;;1.60;99.90;;;;;;5024490;28;20438;-60
2021/11/13 04:43:07;;;;;;;50.27;15.00;;;1.60;99.90;;;;;;5022981;28;20490;-61
2021/11/13 04:45:33;;;;;;;47.67;15.90;;;1.60;99.90;;;;;;5010698;28;20459;-62
2021/11/13 04:47:59;;;;;;;27.03;14.80;;;1.60;99.90;;;;;;5003782;28;20175;-61
2021/11/13 04:50:26;;;;;;;31.40;16.43;;;1.60;99.90;;;;;;5005995;28;20190;-60
2021/11/13 04:52:53;;;;;;;42.17;15.40;;;1.60;99.90;;;;;;5005422;28;20466;-61
2021/11/13 04:55:19;;;;;;;26.37;14.40;;;1.70;99.90;;;;;;5005491;28;20461;-61
2021/11/13 04:57:46;;;;;;;32.77;13.77;;;1.60;99.90;;;;;;5007287;28;20473;-60
2021/11/13 05:00:15;;;;;;;23.10;13.80;;;1.60;99.90;;;;;;5009386;28;20459;-60
2021/11/13 05:02:41;;;;;;;24.97;12.67;;;1.60;99.90;;;;;;5004236;28;20462;-61
2021/11/13 05:05:08;;;;;;;20.00;12.23;;;1.60;99.90;;;;;;5004634;28;21155;-60
2021/11/13 05:07:34;;;;;;;24.90;14.93;;;1.60;99.90;;;;;;5006034;28;20212;-62
2021/11/13 05:09:59;;;;;;;29.20;15.13;;;1.60;99.90;;;;;;5009713;28;20435;-60
2021/11/13 05:12:25;;;;;;;38.30;16.27;;;1.70;99.90;;;;;;5010297;28;20229;-62
2021/11/13 05:14:51;;;;;;;37.70;15.57;;;1.70;99.90;;;;;;5009446;28;20285;-61
2021/11/13 05:17:17;;;;;;;32.50;14.93;;;1.70;99.90;;;;;;5009241;28;20455;-59
2021/11/13 05:19:43;;;;;;;34.53;14.43;;;1.70;99.90;;;;;;5006165;28;20425;-60
2021/11/13 05:22:09;;;;;;;73.97;16.67;;;1.70;99.90;;;;;;5005248;28;20169;-61
2021/11/13 05:24:35;;;;;;;52.60;15.67;;;1.70;99.90;;;;;;5005715;28;20473;-60
2021/11/13 05:27:02;;;;;;;34.27;15.13;;;1.70;99.90;;;;;;5004315;28;20179;-60
2021/11/13 05:29:28;;;;;;;35.57;13.93;;;1.70;99.90;;;;;;5004806;28;21128;-61
2021/11/13 05:31:54;;;;;;;37.70;14.87;;;1.60;99.90;;;;;;5004999;28;20436;-60
2021/11/13 05:34:19;;;;;;;37.40;15.23;;;1.60;99.90;;;;;;5003829;28;20201;-60
2021/11/13 05:36:46;;;;;;;35.10;15.30;;;1.60;99.90;;;;;;5004874;28;20218;-59
2021/11/13 05:39:12;;;;;;;27.40;14.70;;;1.70;99.90;;;;;;5003718;28;20165;-61
2021/11/13 05:41:37;;;;;;;43.77;15.10;;;1.70;99.90;;;;;;5004367;28;21087;-60
2021/11/13 05:44:03;;;;;;;32.13;15.67;;;1.70;99.90;;;;;;5004018;28;20525;-61
2021/11/13 05:46:29;;;;;;;33.00;15.90;;;1.70;99.90;;;;;;5005230;28;20184;-60
2021/11/13 05:48:55;;;;;;;28.97;15.17;;;1.70;99.90;;;;;;5002995;28;20883;-60
2021/11/13 05:51:20;;;;;;;24.53;14.10;;;1.70;99.90;;;;;;5002487;28;20931;-61
2021/11/13 05:53:46;;;;;;;33.27;16.03;;;1.70;99.90;;;;;;5005211;28;20538;-60
2021/11/13 05:56:12;;;;;;;38.77;15.27;;;1.70;99.90;;;;;;5005244;28;20268;-61
2021/11/13 05:58:37;;;;;;;34.33;15.90;;;1.70;99.90;;;;;;5005441;28;20183;-60
2021/11/13 06:01:03;;;;;;;40.50;15.33;;;1.70;99.90;;;;;;5003346;28;20187;-60
2021/11/13 06:03:29;;;;;;;22.20;13.60;;;1.70;99.90;;;;;;5006764;28;20175;-61
2021/11/13 06:05:55;;;;;;;26.07;14.97;;;1.70;99.90;;;;;;5002258;28;20552;-59
2021/11/13 06:08:20;;;;;;;26.20;15.20;;;1.70;99.90;;;;;;5004113;28;20444;-61
2021/11/13 06:10:46;;;;;;;28.37;16.17;;;1.70;99.90;;;;;;5003179;28;20179;-60
2021/11/13 06:13:12;;;;;;;25.17;13.87;;;1.70;99.90;;;;;;5004146;28;20202;-60
2021/11/13 06:15:38;;;;;;;24.50;15.07;;;1.60;99.90;;;;;;5005456;28;20217;-59
2021/11/13 06:18:03;;;;;;;26.57;15.03;;;1.70;99.90;;;;;;5005416;28;20204;-60
2021/11/13 06:20:29;;;;;;;28.00;14.77;;;1.70;99.90;;;;;;5005766;28;20182;-61
2021/11/13 06:22:55;;;;;;;39.23;13.80;;;1.70;99.90;;;;;;5003677;28;20235;-60
2021/11/13 06:25:21;;;;;;;23.73;13.30;;;1.80;99.90;;;;;;5005371;28;20287;-60
2021/11/13 06:27:47;;;;;;;23.53;13.80;;;1.80;99.90;;;;;;5005350;28;20415;-59
2021/11/13 06:30:15;;;;;;;24.60;14.40;;;1.90;99.90;;;;;;5004474;28;20306;-61
2021/11/13 06:32:42;;;;;;;22.47;12.70;;;1.90;99.90;;;;;;5004902;28;20435;-61
2021/11/13 06:35:09;;;;;;;23.93;14.17;;;1.90;99.90;;;;;;5005503;28;20493;-58
2021/11/13 06:37:36;;;;;;;22.07;13.53;;;1.90;99.90;;;;;;5006600;28;20493;-59
2021/11/13 06:40:04;;;;;;;21.03;13.33;;;2.00;99.90;;;;;;5001509;28;20442;-58
2021/11/13 06:42:30;;;;;;;20.93;13.23;;;2.00;99.90;;;;;;5004443;28;20940;-59
2021/11/13 06:44:56;;;;;;;21.37;13.10;;;2.00;99.90;;;;;;5020665;28;20489;-59
2021/11/13 06:47:22;;;;;;;27.33;15.10;;;2.00;99.90;;;;;;5003998;28;20447;-58
2021/11/13 06:49:47;;;;;;;25.27;15.30;;;2.10;99.90;;;;;;5005549;28;21263;-58
2021/11/13 06:52:13;;;;;;;30.27;14.13;;;2.00;99.90;;;;;;5005033;28;20516;-58
2021/11/13 06:54:39;;;;;;;25.73;15.00;;;2.00;99.90;;;;;;5007141;28;20213;-59
2021/11/13 06:57:05;;;;;;;24.03;14.07;;;2.00;99.90;;;;;;5010168;28;20192;-60
2021/11/13 06:59:31;;;;;;;25.90;15.10;;;2.00;99.90;;;;;;5030315;28;20169;-58
2021/11/13 07:01:58;;;;;;;25.17;14.00;;;2.00;99.90;;;;;;5030042;28;20442;-59
2021/11/13 07:04:24;;;;;;;25.00;15.03;;;2.00;99.90;;;;;;5012556;28;20509;-59
2021/11/13 07:06:49;;;;;;;24.43;14.33;;;2.00;99.90;;;;;;5009152;28;20430;-59
2021/11/13 07:09:15;;;;;;;25.63;14.83;;;2.00;99.90;;;;;;5007851;28;20231;-58
2021/11/13 07:11:41;;;;;;;25.33;14.60;;;2.00;99.90;;;;;;5009328;28;20273;-59
2021/11/13 07:14:07;;;;;;;28.70;14.67;;;2.00;99.90;;;;;;5006505;28;20962;-57
2021/11/13 07:16:32;;;;;;;28.57;15.73;;;2.10;99.90;;;;;;5007795;28;20689;-57
2021/11/13 07:18:58;;;;;;;28.23;15.87;;;2.10;99.90;;;;;;5008015;28;20188;-58
2021/11/13 07:21:24;;;;;;;22.13;13.00;;;2.10;99.90;;;;;;5007206;28;20172;-56
2021/11/13 07:23:50;;;;;;;26.23;14.70;;;2.10;99.90;;;;;;5006825;28;20165;-60
2021/11/13 07:26:16;;;;;;;28.17;15.03;;;2.10;99.90;;;;;;5007358;28;20478;-57
2021/11/13 07:28:45;;;;;;;35.67;14.17;;;2.10;99.90;;;;;;5006180;28;20478;-58
2021/11/13 07:31:18;;;;;;;30.03;14.13;;;2.10;99.90;;;;;;5006276;28;20948;-59
2021/11/13 07:33:46;;;;;;;20.90;12.80;;;2.10;99.90;;;;;;5001926;28;21075;-57
2021/11/13 07:36:13;;;;;;;21.13;13.20;;;2.10;99.90;;;;;;5001095;28;20474;-57
2021/11/13 07:38:39;;;;;;;21.20;13.67;;;2.10;99.90;;;;;;5006934;28;20431;-59
2021/11/13 07:41:06;;;;;;;21.17;12.83;;;2.10;99.90;;;;;;5003490;28;21102;-59
2021/11/13 07:43:32;;;;;;;22.70;12.80;;;2.10;99.90;;;;;;5005427;28;20431;-58
2021/11/13 07:45:58;;;;;;;21.63;13.67;;;2.20;99.90;;;;;;5003484;28;20803;-59
2021/11/13 07:48:24;;;;;;;28.70;15.63;;;2.20;99.90;;;;;;5005466;28;20710;-59
2021/11/13 07:50:50;;;;;;;31.03;15.93;;;2.20;99.90;;;;;;5010294;28;20428;-59
2021/11/13 07:53:16;;;;;;;30.60;16.63;;;2.20;99.90;;;;;;5007393;28;20263;-58
2021/11/13 07:55:42;;;;;;;32.07;15.60;;;2.20;99.90;;;;;;5005862;28;20530;-59
2021/11/13 07:58:09;;;;;;;24.83;15.30;;;2.20;99.90;;;;;;5008555;28;21036;-57
2021/11/13 08:00:36;;;;;;;23.57;14.30;;;2.20;99.90;;;;;;5022828;28;20172;-59
2021/11/13 08:03:02;;;;;;;24.87;14.80;;;2.20;99.90;;;;;;5027848;28;20437;-59
2021/11/13 08:05:28;;;;;;;29.87;15.93;;;2.20;99.90;;;;;;5011409;28;20829;-60
2021/11/13 08:07:53;;;;;;;25.60;15.27;;;2.20;99.90;;;;;;5013504;28;20354;-62
2021/11/13 08:10:20;;;;;;;27.00;14.90;;;2.10;99.90;;;;;;5007989;28;20748;-59
2021/11/13 08:12:46;;;;;;;28.30;15.40;;;2.10;99.90;;;;;;5004671;28;20208;-59
2021/11/13 08:15:13;;;;;;;27.70;15.47;;;2.10;99.90;;;;;;5006580;28;20546;-58
2021/11/13 08:17:41;;;;;;;24.33;15.17;;;2.10;99.90;;;;;;5000600;28;20548;-59
2021/11/13 08:20:09;;;;;;;25.23;15.73;;;2.10;99.90;;;;;;5009870;28;20415;-58
2021/11/13 08:22:36;;;;;;;21.80;13.97;;;2.20;99.90;;;;;;5004675;28;20443;-59
2021/11/13 08:25:04;;;;;;;24.10;14.37;;;2.20;99.90;;;;;;5004008;28;20462;-59
2021/11/13 08:27:30;;;;;;;35.20;16.60;;;2.30;99.90;;;;;;5003710;28;20531;-59
2021/11/13 08:29:56;;;;;;;26.33;16.20;;;2.30;99.90;;;;;;5006092;28;20584;-59
2021/11/13 08:32:21;;;;;;;23.07;14.90;;;2.30;99.90;;;;;;5003563;28;20584;-58
2021/11/13 08:34:47;;;;;;;25.60;14.87;;;2.40;99.90;;;;;;5004605;28;20212;-58
2021/11/13 08:37:13;;;;;;;26.43;15.03;;;2.40;99.90;;;;;;4997601;28;20210;-58
2021/11/13 08:39:39;;;;;;;28.80;15.57;;;2.40;99.90;;;;;;5004851;28;20207;-58
2021/11/13 08:42:13;;;;;;;27.10;16.60;;;2.40;99.90;;;;;;5001246;28;20202;-58
2021/11/13 08:44:43;;;;;;;23.80;14.53;;;2.60;99.90;;;;;;5000866;28;20206;-59
2021/11/13 08:47:09;;;;;;;28.40;15.80;;;2.70;99.90;;;;;;5005803;28;20431;-58
2021/11/13 08:49:44;;;;;;;26.67;15.93;;;2.80;99.90;;;;;;5004396;28;20508;-58
2021/11/13 08:52:15;;;;;;;25.00;15.00;;;3.00;99.90;;;;;;5004243;28;20468;-59
2021/11/13 08:54:41;;;;;;;26.30;15.17;;;3.10;99.90;;;;;;5005969;28;20464;-58
2021/11/13 08:57:06;;;;;;;22.67;14.07;;;3.30;99.90;;;;;;5003653;28;20834;-59
2021/11/13 08:59:32;;;;;;;22.03;12.77;;;3.40;99.90;;;;;;5008158;28;20446;-59
2021/11/13 09:02:01;;;;;;;22.63;14.63;;;3.50;99.90;;;;;;4998730;28;20179;-59
2021/11/13 09:04:29;;;;;;;21.60;13.47;;;3.60;99.90;;;;;;5005541;28;20462;-56
2021/11/13 09:06:56;;;;;;;24.40;14.30;;;3.60;99.90;;;;;;5007295;28;20466;-58
2021/11/13 09:09:24;;;;;;;20.00;12.97;;;3.60;99.90;;;;;;4996631;28;20953;-58
2021/11/13 09:11:51;;;;;;;23.67;13.53;;;3.70;99.90;;;;;;4998658;28;20446;-60
2021/11/13 09:14:18;;;;;;;21.00;13.57;;;3.70;99.90;;;;;;5002748;28;21034;-57
2021/11/13 09:16:44;;;;;;;22.83;13.47;;;3.70;99.90;;;;;;5002526;28;20470;-59
2021/11/13 09:19:11;;;;;;;22.80;14.27;;;3.70;99.90;;;;;;4997869;28;20446;-57
2021/11/13 09:21:37;;;;;;;24.47;13.30;;;3.80;99.90;;;;;;5005720;28;20478;-59
2021/11/13 09:24:04;;;;;;;21.03;12.50;;;3.70;99.90;;;;;;5001799;28;20430;-58
2021/11/13 09:26:30;;;;;;;21.20;12.30;;;3.80;99.90;;;;;;5006825;28;20450;-58
2021/11/13 09:28:56;;;;;;;19.27;12.70;;;3.80;99.90;;;;;;5012912;28;20434;-59
2021/11/13 09:31:23;;;;;;;18.27;11.80;;;3.80;99.90;;;;;;5006863;28;20546;-59
2021/11/13 09:33:49;;;;;;;22.50;12.97;;;3.80;99.90;;;;;;5012712;28;20439;-64
2021/11/13 09:36:16;;;;;;;19.63;12.57;;;3.80;99.90;;;;;;5009332;28;20521;-59
2021/11/13 09:38:44;;;;;;;24.70;13.90;;;3.80;99.90;;;;;;5008737;28;20461;-59
2021/11/13 09:41:11;;;;;;;23.83;13.90;;;3.80;99.90;;;;;;5001862;28;20526;-59
2021/11/13 09:43:39;;;;;;;20.90;12.60;;;3.80;99.90;;;;;;4993346;28;20438;-58
2021/11/13 09:46:07;;;;;;;19.00;12.90;;;3.80;99.90;;;;;;4997160;28;20478;-59
2021/11/13 09:48:35;;;;;;;19.07;12.73;;;3.80;99.90;;;;;;4997339;28;20439;-58
2021/11/13 09:51:02;;;;;;;18.50;11.80;;;3.90;99.90;;;;;;4992483;28;20438;-59
2021/11/13 09:53:27;;;;;;;18.10;12.77;;;3.90;99.90;;;;;;4999803;28;20474;-58
2021/11/13 09:55:56;;;;;;;20.93;13.93;;;3.90;99.90;;;;;;4993192;28;20455;-60
2021/11/13 09:58:22;;;;;;;24.97;13.97;;;4.00;99.90;;;;;;4987565;28;20466;-59
2021/11/13 10:00:48;;;;;;;18.47;12.20;;;3.90;99.90;;;;;;4992687;28;20455;-59
2021/11/13 10:03:18;;;;;;;21.57;13.30;;;4.00;99.90;;;;;;4998633;28;20792;-61
2021/11/13 10:05:56;;;;;;;21.13;13.60;;;4.00;99.90;;;;;;4995803;28;20491;-60
2021/11/13 10:08:23;;;;;;;23.23;13.73;;;4.00;99.90;;;;;;5000657;28;20445;-59
2021/11/13 10:10:53;;;;;;;23.23;13.57;;;4.00;99.90;;;;;;4995271;28;20552;-59
2021/11/13 10:13:37;;;;;;;26.00;13.50;;;4.10;99.90;;;;;;5003988;28;21498;-59
2021/11/13 10:16:09;;;;;;;21.13;13.20;;;4.00;99.90;;;;;;4999614;28;20492;-58
2021/11/13 10:18:44;;;;;;;25.53;13.87;;;4.10;99.90;;;;;;4998173;28;20520;-59
2021/11/13 10:21:17;;;;;;;21.80;12.87;;;4.10;99.90;;;;;;5001470;28;20436;-60
2021/11/13 10:23:57;;;;;;;24.83;13.60;;;4.20;99.90;;;;;;5001297;28;20983;-60
2021/11/13 10:26:35;;;;;;;21.50;14.60;;;4.30;99.90;;;;;;4999717;28;20445;-60
2021/11/13 10:29:12;;;;;;;21.30;12.93;;;4.30;99.90;;;;;;5000329;28;21033;-60
2021/11/13 10:31:44;;;;;;;21.77;13.70;;;4.40;99.90;;;;;;4997807;28;20449;-58
2021/11/13 10:34:22;;;;;;;21.57;13.90;;;4.40;99.90;;;;;;4999882;28;20449;-60
2021/11/13 10:36:50;;;;;;;20.50;13.93;;;4.50;99.90;;;;;;5037448;22;20501;-60
2021/11/13 10:39:16;;;;;;;21.77;14.20;;;4.50;99.90;;;;;;5016116;28;20426;-60
2021/11/13 10:41:49;;;;;;;72.43;34.47;;;4.60;99.90;;;;;;5021219;28;20433;-62
2021/11/13 10:44:22;;;;;;;32.93;17.00;;;4.70;99.90;;;;;;5024953;28;20179;-62
2021/11/13 10:46:47;;;;;;;27.13;15.00;;;4.80;99.90;;;;;;5023297;28;20445;-61
2021/11/13 10:49:14;;;;;;;23.67;15.23;;;4.80;99.90;;;;;;5020953;28;20434;-61
2021/11/13 10:51:48;;;;;;;21.90;14.27;;;4.90;99.90;;;;;;5017122;28;20764;-61
2021/11/13 10:54:16;;;;;;;24.17;14.83;;;5.00;99.90;;;;;;5018305;28;20439;-60
2021/11/13 10:56:51;;;;;;;28.17;13.80;;;5.10;99.90;;;;;;5013247;28;20465;-61
2021/11/13 10:59:17;;;;;;;23.20;12.80;;;5.30;99.90;;;;;;5027334;28;20426;-59
2021/11/13 11:01:48;;;;;;;20.27;12.90;;;5.30;99.90;;;;;;5013292;28;20410;-59
2021/11/13 11:04:19;;;;;;;21.60;13.40;;;5.40;99.90;;;;;;5020392;28;20418;-60
2021/11/13 11:06:47;;;;;;;21.80;13.33;;;5.40;99.90;;;;;;5027652;28;20439;-63
2021/11/13 11:09:24;;;;;;;24.80;14.60;;;5.40;99.90;;;;;;5022744;28;20963;-60
2021/11/13 11:11:52;;;;;;;25.43;15.10;;;5.40;99.90;;;;;;5024795;28;20953;-60
2021/11/13 11:14:20;;;;;;;24.40;14.47;;;5.40;99.90;;;;;;5028659;28;20457;-60
2021/11/13 11:16:53;;;;;;;23.97;14.60;;;5.50;99.90;;;;;;5023278;28;20483;-61
2021/11/13 11:19:26;;;;;;;23.67;15.00;;;5.50;99.90;;;;;;5029122;28;20908;-61
2021/11/13 11:22:11;;;;;;;23.73;14.90;;;5.50;99.90;;;;;;5027179;28;20476;-61
2021/11/13 11:24:40;;;;;;;24.00;15.23;;;5.50;99.90;;;;;;5020989;28;20940;-60
2021/11/13 11:27:08;;;;;;;24.47;15.87;;;5.50;99.90;;;;;;5036777;28;20438;-61
2021/11/13 11:29:45;;;;;;;24.27;15.97;;;5.50;99.90;;;;;;5029945;28;20441;-62
2021/11/13 11:32:15;;;;;;;26.30;16.30;;;5.50;99.90;;;;;;5026412;28;20476;-61
2021/11/13 11:34:43;;;;;;;25.53;16.30;;;5.50;99.90;;;;;;5030141;28;20441;-61
2021/11/13 11:37:22;;;;;;;28.30;16.70;;;5.50;99.90;;;;;;5027200;28;20613;-61
2021/11/13 11:39:55;;;;;;;27.13;16.80;;;5.60;99.90;;;;;;5019719;28;20538;-61
2021/11/13 11:42:21;;;;;;;26.20;16.53;;;5.60;99.90;;;;;;5023487;28;20422;-61
2021/11/13 11:44:48;;;;;;;25.47;15.90;;;5.60;99.90;;;;;;5013553;28;20820;-59
2021/11/13 11:47:19;;;;;;;25.77;17.53;;;5.70;99.90;;;;;;5016504;28;20447;-61
2021/11/13 11:49:48;;;;;;;27.13;15.60;;;5.70;99.90;;;;;;5023544;28;20590;-59
2021/11/13 11:52:16;;;;;;;26.10;15.50;;;5.80;99.90;;;;;;5015939;28;20462;-61
2021/11/13 11:54:44;;;;;;;25.17;15.20;;;5.80;99.90;;;;;;5030229;28;20410;-60
2021/11/13 11:57:11;;;;;;;27.53;16.13;;;5.90;99.90;;;;;;5030127;28;20478;-60
2021/11/13 11:59:38;;;;;;;26.83;16.03;;;5.90;99.90;;;;;;5030731;28;20510;-61
2021/11/13 12:02:07;;;;;;;29.43;15.73;;;5.90;99.90;;;;;;5027824;28;20947;-60
2021/11/13 12:04:32;;;;;;;22.87;16.07;;;5.90;99.90;;;;;;5028259;28;20577;-60
2021/11/13 12:06:58;;;;;;;27.50;16.40;;;6.00;99.90;;;;;;5021105;28;20545;-59
2021/11/13 12:09:24;;;;;;;24.80;14.53;;;6.00;99.90;;;;;;5023253;28;20379;-61
2021/11/13 12:12:18;;;;;;;28.53;16.20;;;6.00;99.90;;;;;;5016041;28;20958;-62
2021/11/13 12:14:45;;;;;;;28.53;16.97;;;6.00;99.90;;;;;;5014410;28;20435;-61
2021/11/13 12:17:34;;;;;;;25.20;16.10;;;6.00;99.90;;;;;;5018301;28;20506;-60
2021/11/13 12:20:08;;;;;;;27.53;17.00;;;6.10;99.90;;;;;;5019897;28;20930;-60
2021/11/13 12:22:48;;;;;;;25.90;16.60;;;6.10;99.90;;;;;;5017813;28;20430;-60
2021/11/13 12:25:16;;;;;;;26.13;16.37;;;6.10;99.90;;;;;;5021152;28;20460;-62
2021/11/13 12:28:02;;;;;;;28.50;17.20;;;6.10;99.90;;;;;;5017965;28;20521;-61
2021/11/13 12:30:52;;;;;;;26.90;16.70;;;6.10;99.90;;;;;;5017759;28;20431;-60
2021/11/13 12:33:27;;;;;;;24.37;15.60;;;6.10;99.90;;;;;;5017465;28;20513;-61
2021/11/13 12:36:03;;;;;;;25.10;16.40;;;6.10;99.90;;;;;;5012568;28;20461;-62
2021/11/13 12:38:55;;;;;;;24.97;15.63;;;6.20;99.90;;;;;;5014390;28;20466;-63